sensor_id;sensor_type;location;lat;lon;timestamp;pressure;altitude;pressure_sealevel;temperature;humidity
64402;BME280;50724;42.376;23.768;2023-02-12T00:00:59;93952.63;;;-0.13;37.71
64402;BME280;50724;42.376;23.768;2023-02-12T00:04:00;93952.78;;;-0.01;37.53
64402;BME280;50724;42.376;23.768;2023-02-12T00:07:00;93946.38;;;-0.09;37.30
64402;BME280;50724;42.376;23.768;2023-02-12T00:10:01;93940.28;;;0.09;37.02
64402;BME280;50724;42.376;23.768;2023-02-12T00:13:01;93945.41;;;0.09;37.00
64402;BME280;50724;42.376;23.768;2023-02-12T00:16:07;93941.06;;;0.10;37.01
64402;BME280;50724;42.376;23.768;2023-02-12T00:19:08;93944.47;;;0.10;37.49
64402;BME280;50724;42.376;23.768;2023-02-12T00:22:09;93950.88;;;0.03;37.44
64402;BME280;50724;42.376;23.768;2023-02-12T00:25:09;93943.25;;;0.02;37.67
64402;BME280;50724;42.376;23.768;2023-02-12T00:28:10;93939.09;;;-0.01;37.79
64402;BME280;50724;42.376;23.768;2023-02-12T00:31:13;93942.66;;;0.12;38.18
64402;BME280;50724;42.376;23.768;2023-02-12T00:34:14;93944.63;;;0.07;38.32
64402;BME280;50724;42.376;23.768;2023-02-12T00:37:14;93943.09;;;0.05;38.60
64402;BME280;50724;42.376;23.768;2023-02-12T00:40:15;93933.81;;;0.02;39.00
64402;BME280;50724;42.376;23.768;2023-02-12T00:43:15;93938.84;;;0.04;38.72
64402;BME280;50724;42.376;23.768;2023-02-12T00:46:15;93940.69;;;0.02;39.39
64402;BME280;50724;42.376;23.768;2023-02-12T00:49:16;93950.47;;;-0.05;39.63
64402;BME280;50724;42.376;23.768;2023-02-12T00:52:18;93956.84;;;-0.12;39.72
64402;BME280;50724;42.376;23.768;2023-02-12T00:55:26;93944.00;;;-0.12;39.89
64402;BME280;50724;42.376;23.768;2023-02-12T00:58:27;93937.69;;;-0.22;40.27
64402;BME280;50724;42.376;23.768;2023-02-12T01:01:27;93931.38;;;-0.32;40.46
64402;BME280;50724;42.376;23.768;2023-02-12T01:04:28;93927.56;;;-0.25;39.77
64402;BME280;50724;42.376;23.768;2023-02-12T01:07:28;93913.06;;;-0.11;39.44
64402;BME280;50724;42.376;23.768;2023-02-12T01:10:29;93919.94;;;-0.11;39.38
64402;BME280;50724;42.376;23.768;2023-02-12T01:13:30;93908.91;;;-0.13;39.66
64402;BME280;50724;42.376;23.768;2023-02-12T01:16:31;93894.56;;;-0.02;38.61
64402;BME280;50724;42.376;23.768;2023-02-12T01:19:33;93892.41;;;0.07;37.92
64402;BME280;50724;42.376;23.768;2023-02-12T01:22:34;93885.69;;;0.04;37.58
64402;BME280;50724;42.376;23.768;2023-02-12T01:25:37;93884.75;;;0.05;37.69
64402;BME280;50724;42.376;23.768;2023-02-12T01:28:42;93866.28;;;-0.02;37.82
64402;BME280;50724;42.376;23.768;2023-02-12T01:31:43;93870.94;;;-0.08;37.89
64402;BME280;50724;42.376;23.768;2023-02-12T01:34:43;93864.13;;;-0.09;37.89
64402;BME280;50724;42.376;23.768;2023-02-12T01:37:44;93860.09;;;-0.13;38.21
64402;BME280;50724;42.376;23.768;2023-02-12T01:40:44;93871.44;;;-0.17;38.33
64402;BME280;50724;42.376;23.768;2023-02-12T01:43:45;93884.13;;;-0.30;38.63
64402;BME280;50724;42.376;23.768;2023-02-12T01:46:48;93880.91;;;-0.33;38.99
64402;BME280;50724;42.376;23.768;2023-02-12T01:49:48;93878.41;;;-0.35;38.92
64402;BME280;50724;42.376;23.768;2023-02-12T01:52:58;93879.81;;;-0.29;39.14
64402;BME280;50724;42.376;23.768;2023-02-12T01:55:59;93878.16;;;-0.30;39.17
64402;BME280;50724;42.376;23.768;2023-02-12T01:59:00;93882.66;;;-0.34;39.17
64402;BME280;50724;42.376;23.768;2023-02-12T02:02:02;93880.41;;;-0.40;39.44
64402;BME280;50724;42.376;23.768;2023-02-12T02:05:03;93887.97;;;-0.21;38.71
64402;BME280;50724;42.376;23.768;2023-02-12T02:08:04;93876.19;;;-0.10;38.52
64402;BME280;50724;42.376;23.768;2023-02-12T02:11:05;93874.25;;;-0.06;38.65
64402;BME280;50724;42.376;23.768;2023-02-12T02:14:25;93871.84;;;-0.09;38.22
64402;BME280;50724;42.376;23.768;2023-02-12T02:17:50;93872.78;;;-0.10;38.14
64402;BME280;50724;42.376;23.768;2023-02-12T02:21:18;93865.13;;;-0.12;37.99
64402;BME280;50724;42.376;23.768;2023-02-12T02:28:27;93875.69;;;-0.32;39.18
64402;BME280;50724;42.376;23.768;2023-02-12T02:31:33;93872.78;;;-0.41;39.57
64402;BME280;50724;42.376;23.768;2023-02-12T02:34:46;93861.53;;;-0.54;39.88
64402;BME280;50724;42.376;23.768;2023-02-12T02:42:24;93858.03;;;-0.53;40.55
64402;BME280;50724;42.376;23.768;2023-02-12T02:48:37;93869.06;;;-0.36;40.63
64402;BME280;50724;42.376;23.768;2023-02-12T02:51:44;93866.16;;;-0.30;40.63
64402;BME280;50724;42.376;23.768;2023-02-12T02:54:51;93846.75;;;-0.20;40.30
64402;BME280;50724;42.376;23.768;2023-02-12T02:57:56;93860.91;;;-0.13;40.45
64402;BME280;50724;42.376;23.768;2023-02-12T03:01:06;93855.63;;;-0.10;40.57
64402;BME280;50724;42.376;23.768;2023-02-12T03:04:16;93855.88;;;-0.14;40.74
64402;BME280;50724;42.376;23.768;2023-02-12T03:07:28;93876.00;;;-0.22;41.21
64402;BME280;50724;42.376;23.768;2023-02-12T03:10:35;93869.78;;;-0.18;41.18
64402;BME280;50724;42.376;23.768;2023-02-12T03:13:41;93861.06;;;-0.16;41.20
64402;BME280;50724;42.376;23.768;2023-02-12T03:17:02;93866.56;;;-0.22;41.91
64402;BME280;50724;42.376;23.768;2023-02-12T03:20:08;93872.53;;;-0.21;41.83
64402;BME280;50724;42.376;23.768;2023-02-12T03:23:18;93874.44;;;-0.25;42.07
64402;BME280;50724;42.376;23.768;2023-02-12T03:26:26;93876.66;;;-0.19;41.73
64402;BME280;50724;42.376;23.768;2023-02-12T03:29:30;93862.00;;;-0.17;41.93
64402;BME280;50724;42.376;23.768;2023-02-12T03:36:02;93857.41;;;-0.12;42.38
64402;BME280;50724;42.376;23.768;2023-02-12T03:39:19;93859.75;;;-0.07;42.60
64402;BME280;50724;42.376;23.768;2023-02-12T03:42:33;93868.47;;;-0.10;42.93
64402;BME280;50724;42.376;23.768;2023-02-12T03:52:05;93882.31;;;-0.12;43.73
64402;BME280;50724;42.376;23.768;2023-02-12T03:55:05;93874.75;;;-0.15;44.29
64402;BME280;50724;42.376;23.768;2023-02-12T03:58:09;93880.16;;;-0.20;45.15
64402;BME280;50724;42.376;23.768;2023-02-12T04:01:13;93872.59;;;-0.23;45.28
64402;BME280;50724;42.376;23.768;2023-02-12T04:04:13;93866.97;;;-0.29;45.47
64402;BME280;50724;42.376;23.768;2023-02-12T04:07:15;93874.84;;;-0.32;46.04
64402;BME280;50724;42.376;23.768;2023-02-12T04:10:16;93878.34;;;-0.33;46.59
64402;BME280;50724;42.376;23.768;2023-02-12T04:13:24;93884.38;;;-0.34;46.85
64402;BME280;50724;42.376;23.768;2023-02-12T04:23:06;93875.53;;;-0.29;48.09
64402;BME280;50724;42.376;23.768;2023-02-12T04:26:36;93865.25;;;-0.29;48.55
64402;BME280;50724;42.376;23.768;2023-02-12T04:29:41;93869.28;;;-0.25;48.76
64402;BME280;50724;42.376;23.768;2023-02-12T04:32:52;93876.25;;;-0.27;48.93
64402;BME280;50724;42.376;23.768;2023-02-12T04:36:20;93876.16;;;-0.25;49.47
64402;BME280;50724;42.376;23.768;2023-02-12T04:39:26;93894.91;;;-0.23;49.72
64402;BME280;50724;42.376;23.768;2023-02-12T04:42:44;93880.31;;;-0.23;50.17
64402;BME280;50724;42.376;23.768;2023-02-12T04:45:45;93895.69;;;-0.21;50.49
64402;BME280;50724;42.376;23.768;2023-02-12T04:48:52;93890.69;;;-0.24;50.72
64402;BME280;50724;42.376;23.768;2023-02-12T04:51:53;93894.00;;;-0.22;51.35
64402;BME280;50724;42.376;23.768;2023-02-12T04:54:54;93898.25;;;-0.21;51.42
64402;BME280;50724;42.376;23.768;2023-02-12T04:57:54;93906.94;;;-0.24;51.74
64402;BME280;50724;42.376;23.768;2023-02-12T05:00:58;93916.31;;;-0.23;51.89
64402;BME280;50724;42.376;23.768;2023-02-12T05:03:58;93924.00;;;-0.23;51.89
64402;BME280;50724;42.376;23.768;2023-02-12T05:06:58;93923.25;;;-0.25;52.01
64402;BME280;50724;42.376;23.768;2023-02-12T05:09:59;93920.53;;;-0.22;52.03
64402;BME280;50724;42.376;23.768;2023-02-12T05:12:59;93922.59;;;-0.13;52.16
64402;BME280;50724;42.376;23.768;2023-02-12T05:16:03;93921.47;;;-0.07;52.07
64402;BME280;50724;42.376;23.768;2023-02-12T05:19:04;93924.41;;;0.01;52.16
64402;BME280;50724;42.376;23.768;2023-02-12T05:22:05;93925.91;;;0.05;52.42
64402;BME280;50724;42.376;23.768;2023-02-12T05:25:05;93920.00;;;0.03;52.44
64402;BME280;50724;42.376;23.768;2023-02-12T05:28:06;93912.16;;;0.06;51.83
64402;BME280;50724;42.376;23.768;2023-02-12T05:31:07;93927.56;;;0.06;51.96
64402;BME280;50724;42.376;23.768;2023-02-12T05:34:10;93928.56;;;0.04;52.43
64402;BME280;50724;42.376;23.768;2023-02-12T05:37:10;93931.97;;;0.04;52.51
64402;BME280;50724;42.376;23.768;2023-02-12T05:40:19;93942.56;;;-0.02;52.78
64402;BME280;50724;42.376;23.768;2023-02-12T05:43:19;93939.25;;;-0.04;52.83
64402;BME280;50724;42.376;23.768;2023-02-12T05:46:20;93968.38;;;-0.04;53.02
64402;BME280;50724;42.376;23.768;2023-02-12T05:49:21;93959.09;;;-0.06;53.06
64402;BME280;50724;42.376;23.768;2023-02-12T05:52:30;93974.09;;;0.02;52.97
64402;BME280;50724;42.376;23.768;2023-02-12T05:55:30;93963.97;;;-0.02;52.83
64402;BME280;50724;42.376;23.768;2023-02-12T05:58:31;93969.97;;;-0.01;53.02
64402;BME280;50724;42.376;23.768;2023-02-12T06:01:39;93961.25;;;0.02;52.99
64402;BME280;50724;42.376;23.768;2023-02-12T06:04:41;93979.16;;;0.03;52.82
64402;BME280;50724;42.376;23.768;2023-02-12T06:07:41;93980.41;;;0.12;52.42
64402;BME280;50724;42.376;23.768;2023-02-12T06:10:41;93979.66;;;0.10;52.76
64402;BME280;50724;42.376;23.768;2023-02-12T06:13:42;93982.91;;;0.13;52.66
64402;BME280;50724;42.376;23.768;2023-02-12T06:16:44;93985.38;;;0.15;52.19
64402;BME280;50724;42.376;23.768;2023-02-12T06:19:45;93978.66;;;0.12;52.46
64402;BME280;50724;42.376;23.768;2023-02-12T06:22:46;93981.31;;;0.11;52.74
64402;BME280;50724;42.376;23.768;2023-02-12T06:25:47;93974.59;;;0.08;53.20
64402;BME280;50724;42.376;23.768;2023-02-12T06:28:48;93972.03;;;-0.08;54.31
64402;BME280;50724;42.376;23.768;2023-02-12T06:31:49;93982.97;;;-0.20;56.52
64402;BME280;50724;42.376;23.768;2023-02-12T06:34:58;93987.06;;;-0.33;62.88
64402;BME280;50724;42.376;23.768;2023-02-12T06:37:58;94001.50;;;-0.63;69.37
64402;BME280;50724;42.376;23.768;2023-02-12T06:41:01;94010.53;;;-0.89;72.95
64402;BME280;50724;42.376;23.768;2023-02-12T06:44:02;94001.78;;;-0.85;73.25
64402;BME280;50724;42.376;23.768;2023-02-12T06:47:03;94008.66;;;-1.02;77.03
64402;BME280;50724;42.376;23.768;2023-02-12T06:50:04;94001.03;;;-1.21;78.71
64402;BME280;50724;42.376;23.768;2023-02-12T06:53:04;94005.09;;;-1.17;79.22
64402;BME280;50724;42.376;23.768;2023-02-12T06:56:07;94011.06;;;-1.16;78.66
64402;BME280;50724;42.376;23.768;2023-02-12T06:59:13;94004.13;;;-1.14;78.20
64402;BME280;50724;42.376;23.768;2023-02-12T07:02:14;94006.56;;;-1.11;78.16
64402;BME280;50724;42.376;23.768;2023-02-12T07:05:14;94005.47;;;-1.07;78.03
64402;BME280;50724;42.376;23.768;2023-02-12T07:08:15;94002.53;;;-1.00;78.21
64402;BME280;50724;42.376;23.768;2023-02-12T07:11:16;94008.38;;;-0.96;78.21
64402;BME280;50724;42.376;23.768;2023-02-12T07:14:16;94002.09;;;-0.91;78.29
64402;BME280;50724;42.376;23.768;2023-02-12T07:17:16;93998.38;;;-0.85;78.09
64402;BME280;50724;42.376;23.768;2023-02-12T07:20:17;93997.41;;;-0.83;77.63
64402;BME280;50724;42.376;23.768;2023-02-12T07:23:17;93990.81;;;-0.71;76.08
64402;BME280;50724;42.376;23.768;2023-02-12T07:26:19;93992.81;;;-0.60;75.21
64402;BME280;50724;42.376;23.768;2023-02-12T07:29:20;93987.97;;;-0.49;73.42
64402;BME280;50724;42.376;23.768;2023-02-12T07:32:20;94000.94;;;-0.35;72.40
64402;BME280;50724;42.376;23.768;2023-02-12T07:35:21;93984.19;;;-0.42;72.18
64402;BME280;50724;42.376;23.768;2023-02-12T07:38:21;93993.44;;;-0.40;71.87
64402;BME280;50724;42.376;23.768;2023-02-12T07:41:27;93991.16;;;-0.29;71.67
64402;BME280;50724;42.376;23.768;2023-02-12T07:44:27;93992.16;;;-0.31;71.78
64402;BME280;50724;42.376;23.768;2023-02-12T07:47:28;93988.09;;;-0.35;71.53
64402;BME280;50724;42.376;23.768;2023-02-12T07:50:30;94000.00;;;-0.34;72.22
64402;BME280;50724;42.376;23.768;2023-02-12T07:53:31;93994.78;;;-0.33;71.89
64402;BME280;50724;42.376;23.768;2023-02-12T07:56:34;94013.84;;;-0.37;72.12
64402;BME280;50724;42.376;23.768;2023-02-12T07:59:35;94016.53;;;-0.23;72.08
64402;BME280;50724;42.376;23.768;2023-02-12T08:02:35;94015.78;;;-0.25;71.92
64402;BME280;50724;42.376;23.768;2023-02-12T08:05:36;94016.69;;;-0.26;71.85
64402;BME280;50724;42.376;23.768;2023-02-12T08:08:36;94017.38;;;-0.22;70.98
64402;BME280;50724;42.376;23.768;2023-02-12T08:11:39;94020.59;;;-0.19;71.62
64402;BME280;50724;42.376;23.768;2023-02-12T08:14:40;94024.28;;;-0.07;72.01
64402;BME280;50724;42.376;23.768;2023-02-12T08:17:40;94030.66;;;0.02;71.78
64402;BME280;50724;42.376;23.768;2023-02-12T08:20:42;94029.84;;;0.01;72.00
64402;BME280;50724;42.376;23.768;2023-02-12T08:23:44;94023.50;;;-0.09;72.66
64402;BME280;50724;42.376;23.768;2023-02-12T08:26:44;94027.34;;;-0.01;72.92
64402;BME280;50724;42.376;23.768;2023-02-12T08:29:45;94027.44;;;0.14;72.33
64402;BME280;50724;42.376;23.768;2023-02-12T08:32:48;94033.19;;;0.19;71.42
64402;BME280;50724;42.376;23.768;2023-02-12T08:35:48;94040.16;;;0.32;70.90
64402;BME280;50724;42.376;23.768;2023-02-12T08:38:49;94036.75;;;0.32;71.10
64402;BME280;50724;42.376;23.768;2023-02-12T08:41:53;94027.84;;;0.22;71.22
64402;BME280;50724;42.376;23.768;2023-02-12T08:44:54;94038.72;;;0.27;71.34
64402;BME280;50724;42.376;23.768;2023-02-12T08:47:54;94039.66;;;0.41;70.71
64402;BME280;50724;42.376;23.768;2023-02-12T08:50:55;94037.81;;;0.43;70.78
64402;BME280;50724;42.376;23.768;2023-02-12T08:53:58;94048.84;;;0.61;70.23
64402;BME280;50724;42.376;23.768;2023-02-12T08:57:01;94045.91;;;0.83;69.27
64402;BME280;50724;42.376;23.768;2023-02-12T09:00:02;94046.63;;;1.00;69.19
64402;BME280;50724;42.376;23.768;2023-02-12T09:03:03;94056.31;;;0.65;70.82
64402;BME280;50724;42.376;23.768;2023-02-12T09:06:05;94057.56;;;0.74;70.65
64402;BME280;50724;42.376;23.768;2023-02-12T09:09:06;94059.13;;;0.77;70.18
64402;BME280;50724;42.376;23.768;2023-02-12T09:12:06;94058.00;;;0.96;69.86
64402;BME280;50724;42.376;23.768;2023-02-12T09:15:07;94069.81;;;1.00;69.88
64402;BME280;50724;42.376;23.768;2023-02-12T09:18:08;94065.44;;;0.87;69.96
64402;BME280;50724;42.376;23.768;2023-02-12T09:21:14;94065.25;;;0.90;70.24
64402;BME280;50724;42.376;23.768;2023-02-12T09:24:15;94065.03;;;0.79;70.84
64402;BME280;50724;42.376;23.768;2023-02-12T09:27:16;94071.72;;;0.97;70.41
64402;BME280;50724;42.376;23.768;2023-02-12T09:30:16;94078.28;;;1.02;69.21
64402;BME280;50724;42.376;23.768;2023-02-12T09:33:17;94075.47;;;0.91;69.85
64402;BME280;50724;42.376;23.768;2023-02-12T09:36:18;94076.31;;;0.76;70.47
64402;BME280;50724;42.376;23.768;2023-02-12T09:39:18;94072.97;;;0.90;70.31
64402;BME280;50724;42.376;23.768;2023-02-12T09:42:35;94059.19;;;0.91;70.43
64402;BME280;50724;42.376;23.768;2023-02-12T09:45:50;94064.88;;;1.11;70.29
64402;BME280;50724;42.376;23.768;2023-02-12T09:49:22;94062.50;;;1.22;70.36
64402;BME280;50724;42.376;23.768;2023-02-12T09:52:27;94054.72;;;1.24;69.85
64402;BME280;50724;42.376;23.768;2023-02-12T09:55:30;94059.00;;;1.53;69.03
64402;BME280;50724;42.376;23.768;2023-02-12T10:01:50;94058.41;;;1.34;69.13
64402;BME280;50724;42.376;23.768;2023-02-12T10:04:51;94050.13;;;1.43;68.63
64402;BME280;50724;42.376;23.768;2023-02-12T10:11:52;94065.38;;;1.62;67.72
64402;BME280;50724;42.376;23.768;2023-02-12T10:28:14;94078.28;;;1.76;67.28
64402;BME280;50724;42.376;23.768;2023-02-12T10:31:22;94078.09;;;1.79;66.75
64402;BME280;50724;42.376;23.768;2023-02-12T10:34:29;94077.53;;;1.74;67.23
64402;BME280;50724;42.376;23.768;2023-02-12T10:41:27;94099.72;;;1.76;67.48
64402;BME280;50724;42.376;23.768;2023-02-12T10:44:30;94097.16;;;1.90;66.59
64402;BME280;50724;42.376;23.768;2023-02-12T10:47:30;94091.09;;;1.77;67.50
64402;BME280;50724;42.376;23.768;2023-02-12T10:53:44;94088.88;;;1.85;67.54
64402;BME280;50724;42.376;23.768;2023-02-12T10:56:45;94072.38;;;1.88;67.26
64402;BME280;50724;42.376;23.768;2023-02-12T10:59:47;94078.94;;;1.93;67.10
64402;BME280;50724;42.376;23.768;2023-02-12T11:06:25;94095.53;;;1.89;67.08
64402;BME280;50724;42.376;23.768;2023-02-12T11:09:30;94099.81;;;1.75;67.18
64402;BME280;50724;42.376;23.768;2023-02-12T11:12:40;94093.16;;;1.57;67.84
64402;BME280;50724;42.376;23.768;2023-02-12T11:15:48;94100.53;;;1.63;67.74
64402;BME280;50724;42.376;23.768;2023-02-12T11:18:57;94106.53;;;1.63;67.63
64402;BME280;50724;42.376;23.768;2023-02-12T11:22:10;94108.66;;;1.71;67.42
64402;BME280;50724;42.376;23.768;2023-02-12T11:25:15;94105.09;;;1.73;67.53
64402;BME280;50724;42.376;23.768;2023-02-12T11:28:17;94105.38;;;1.83;67.27
64402;BME280;50724;42.376;23.768;2023-02-12T11:34:24;94101.22;;;1.80;67.68
64402;BME280;50724;42.376;23.768;2023-02-12T11:37:24;94108.41;;;1.89;67.26
64402;BME280;50724;42.376;23.768;2023-02-12T11:40:30;94104.72;;;1.79;67.19
64402;BME280;50724;42.376;23.768;2023-02-12T11:43:34;94107.72;;;1.72;67.82
64402;BME280;50724;42.376;23.768;2023-02-12T11:46:54;94103.81;;;1.80;67.14
64402;BME280;50724;42.376;23.768;2023-02-12T11:50:00;94104.25;;;1.73;67.90
64402;BME280;50724;42.376;23.768;2023-02-12T11:53:06;94115.13;;;1.78;67.60
64402;BME280;50724;42.376;23.768;2023-02-12T11:56:12;94107.94;;;1.69;67.51
64402;BME280;50724;42.376;23.768;2023-02-12T11:59:30;94106.34;;;1.66;67.28
64402;BME280;50724;42.376;23.768;2023-02-12T12:02:33;94108.66;;;1.71;67.59
64402;BME280;50724;42.376;23.768;2023-02-12T12:05:44;94107.75;;;1.86;67.52
64402;BME280;50724;42.376;23.768;2023-02-12T12:09:01;94113.38;;;1.92;67.15
64402;BME280;50724;42.376;23.768;2023-02-12T12:15:25;94108.19;;;1.78;67.89
64402;BME280;50724;42.376;23.768;2023-02-12T12:19:04;94119.84;;;1.56;68.88
64402;BME280;50724;42.376;23.768;2023-02-12T12:25:44;94125.38;;;1.50;69.36
64402;BME280;50724;42.376;23.768;2023-02-12T12:32:09;94124.47;;;1.65;69.70
64402;BME280;50724;42.376;23.768;2023-02-12T12:35:21;94128.56;;;1.97;68.77
64402;BME280;50724;42.376;23.768;2023-02-12T12:46:08;94156.16;;;1.67;68.28
64402;BME280;50724;42.376;23.768;2023-02-12T13:09:17;94170.72;;;1.68;67.06
64402;BME280;50724;42.376;23.768;2023-02-12T13:16:16;94170.13;;;1.92;66.74
64402;BME280;50724;42.376;23.768;2023-02-12T13:26:29;94169.53;;;2.31;65.55
64402;BME280;50724;42.376;23.768;2023-02-12T13:29:47;94167.41;;;2.24;65.77
64402;BME280;50724;42.376;23.768;2023-02-12T13:33:10;94170.94;;;2.37;64.19
64402;BME280;50724;42.376;23.768;2023-02-12T13:36:13;94178.47;;;2.40;63.61
64402;BME280;50724;42.376;23.768;2023-02-12T13:39:21;94169.44;;;2.33;64.11
64402;BME280;50724;42.376;23.768;2023-02-12T13:49:44;94182.50;;;1.72;65.88
64402;BME280;50724;42.376;23.768;2023-02-12T13:52:49;94185.44;;;1.66;65.82
64402;BME280;50724;42.376;23.768;2023-02-12T13:56:06;94190.16;;;1.73;65.41
64402;BME280;50724;42.376;23.768;2023-02-12T14:05:34;94188.75;;;1.38;67.41
64402;BME280;50724;42.376;23.768;2023-02-12T14:08:37;94186.22;;;1.52;67.24
64402;BME280;50724;42.376;23.768;2023-02-12T14:11:50;94197.03;;;1.59;66.87
64402;BME280;50724;42.376;23.768;2023-02-12T14:14:55;94209.13;;;1.72;66.07
64402;BME280;50724;42.376;23.768;2023-02-12T14:24:46;94223.91;;;1.39;67.44
64402;BME280;50724;42.376;23.768;2023-02-12T14:27:51;94219.56;;;1.39;68.00
64402;BME280;50724;42.376;23.768;2023-02-12T14:37:31;94237.88;;;1.35;68.96
64402;BME280;50724;42.376;23.768;2023-02-12T14:43:34;94245.94;;;1.13;69.20
64402;BME280;50724;42.376;23.768;2023-02-12T14:49:56;94251.00;;;1.15;69.34
64402;BME280;50724;42.376;23.768;2023-02-12T14:53:12;94263.91;;;1.15;69.26
64402;BME280;50724;42.376;23.768;2023-02-12T14:56:22;94268.13;;;1.16;69.56
64402;BME280;50724;42.376;23.768;2023-02-12T14:59:28;94261.22;;;1.16;69.92
64402;BME280;50724;42.376;23.768;2023-02-12T15:02:33;94263.47;;;1.07;70.12
64402;BME280;50724;42.376;23.768;2023-02-12T15:09:05;94283.63;;;0.99;70.74
64402;BME280;50724;42.376;23.768;2023-02-12T15:12:16;94287.22;;;1.12;70.21
64402;BME280;50724;42.376;23.768;2023-02-12T15:21:41;94303.28;;;1.17;70.31
64402;BME280;50724;42.376;23.768;2023-02-12T15:24:41;94307.59;;;1.01;71.02
64402;BME280;50724;42.376;23.768;2023-02-12T15:27:46;94310.31;;;0.98;71.04
64402;BME280;50724;42.376;23.768;2023-02-12T15:30:48;94324.41;;;0.91;71.64
64402;BME280;50724;42.376;23.768;2023-02-12T15:33:51;94324.16;;;0.80;72.18
64402;BME280;50724;42.376;23.768;2023-02-12T15:36:56;94342.97;;;0.80;72.26
64402;BME280;50724;42.376;23.768;2023-02-12T15:39:59;94343.97;;;0.78;72.63
64402;BME280;50724;42.376;23.768;2023-02-12T15:43:05;94344.78;;;0.78;72.97
64402;BME280;50724;42.376;23.768;2023-02-12T15:46:15;94349.53;;;0.70;73.59
64402;BME280;50724;42.376;23.768;2023-02-12T15:49:18;94360.06;;;0.65;74.10
64402;BME280;50724;42.376;23.768;2023-02-12T15:52:21;94365.88;;;0.69;74.09
64402;BME280;50724;42.376;23.768;2023-02-12T15:55:28;94370.25;;;0.67;74.07
64402;BME280;50724;42.376;23.768;2023-02-12T16:01:51;94375.78;;;0.59;74.99
64402;BME280;50724;42.376;23.768;2023-02-12T16:04:57;94375.03;;;0.57;75.41
64402;BME280;50724;42.376;23.768;2023-02-12T16:07:58;94386.91;;;0.60;75.53
64402;BME280;50724;42.376;23.768;2023-02-12T16:10:59;94384.44;;;0.58;75.37
64402;BME280;50724;42.376;23.768;2023-02-12T16:14:32;94391.75;;;0.66;75.16
64402;BME280;50724;42.376;23.768;2023-02-12T16:17:35;94396.84;;;0.67;74.88
64402;BME280;50724;42.376;23.768;2023-02-12T16:20:37;94404.19;;;0.58;75.22
64402;BME280;50724;42.376;23.768;2023-02-12T16:23:38;94403.13;;;0.62;75.17
64402;BME280;50724;42.376;23.768;2023-02-12T16:26:50;94418.63;;;0.60;73.99
64402;BME280;50724;42.376;23.768;2023-02-12T16:29:53;94411.69;;;0.62;74.08
64402;BME280;50724;42.376;23.768;2023-02-12T16:32:55;94426.97;;;0.65;73.99
64402;BME280;50724;42.376;23.768;2023-02-12T16:36:03;94420.38;;;0.60;73.72
64402;BME280;50724;42.376;23.768;2023-02-12T16:39:05;94421.13;;;0.62;73.75
64402;BME280;50724;42.376;23.768;2023-02-12T16:42:14;94426.41;;;0.59;72.79
64402;BME280;50724;42.376;23.768;2023-02-12T16:48:27;94452.09;;;0.60;72.97
64402;BME280;50724;42.376;23.768;2023-02-12T16:51:29;94449.44;;;0.62;73.05
64402;BME280;50724;42.376;23.768;2023-02-12T16:54:34;94454.28;;;0.68;72.79
64402;BME280;50724;42.376;23.768;2023-02-12T16:57:34;94462.31;;;0.62;73.26
64402;BME280;50724;42.376;23.768;2023-02-12T17:00:35;94469.31;;;0.77;71.77
64402;BME280;50724;42.376;23.768;2023-02-12T17:03:36;94479.22;;;0.85;71.46
64402;BME280;50724;42.376;23.768;2023-02-12T17:06:36;94477.56;;;1.01;70.99
64402;BME280;50724;42.376;23.768;2023-02-12T17:09:37;94488.38;;;0.90;71.33
64402;BME280;50724;42.376;23.768;2023-02-12T17:12:50;94486.19;;;0.65;72.79
64402;BME280;50724;42.376;23.768;2023-02-12T17:15:58;94487.44;;;0.57;73.51
64402;BME280;50724;42.376;23.768;2023-02-12T17:19:02;94496.84;;;0.58;73.12
64402;BME280;50724;42.376;23.768;2023-02-12T17:22:03;94494.53;;;0.52;73.22
64402;BME280;50724;42.376;23.768;2023-02-12T17:25:05;94502.13;;;0.55;73.37
64402;BME280;50724;42.376;23.768;2023-02-12T17:28:05;94503.22;;;0.49;74.00
64402;BME280;50724;42.376;23.768;2023-02-12T17:31:08;94506.66;;;0.50;74.11
64402;BME280;50724;42.376;23.768;2023-02-12T17:34:09;94503.22;;;0.49;74.56
64402;BME280;50724;42.376;23.768;2023-02-12T17:37:09;94512.22;;;0.41;74.71
64402;BME280;50724;42.376;23.768;2023-02-12T17:40:10;94522.81;;;0.35;75.18
64402;BME280;50724;42.376;23.768;2023-02-12T17:43:11;94519.81;;;0.44;74.04
64402;BME280;50724;42.376;23.768;2023-02-12T17:46:16;94531.94;;;0.42;73.87
64402;BME280;50724;42.376;23.768;2023-02-12T17:49:17;94538.25;;;0.35;74.24
64402;BME280;50724;42.376;23.768;2023-02-12T17:52:18;94546.75;;;0.37;73.40
64402;BME280;50724;42.376;23.768;2023-02-12T17:55:18;94542.00;;;0.28;73.08
64402;BME280;50724;42.376;23.768;2023-02-12T17:58:18;94552.16;;;0.31;72.94
64402;BME280;50724;42.376;23.768;2023-02-12T18:01:21;94546.03;;;0.33;72.23
64402;BME280;50724;42.376;23.768;2023-02-12T18:04:22;94543.94;;;0.41;71.94
64402;BME280;50724;42.376;23.768;2023-02-12T18:07:22;94552.00;;;0.34;72.12
64402;BME280;50724;42.376;23.768;2023-02-12T18:10:23;94552.16;;;0.31;72.45
64402;BME280;50724;42.376;23.768;2023-02-12T18:13:23;94549.94;;;0.42;71.90
64402;BME280;50724;42.376;23.768;2023-02-12T18:16:26;94555.41;;;0.53;71.62
64402;BME280;50724;42.376;23.768;2023-02-12T18:19:27;94554.47;;;0.37;72.04
64402;BME280;50724;42.376;23.768;2023-02-12T18:22:28;94563.25;;;0.50;71.66
64402;BME280;50724;42.376;23.768;2023-02-12T18:25:28;94560.00;;;0.46;72.25
64402;BME280;50724;42.376;23.768;2023-02-12T18:28:29;94560.00;;;0.46;72.15
64402;BME280;50724;42.376;23.768;2023-02-12T18:31:29;94559.66;;;0.54;72.22
64402;BME280;50724;42.376;23.768;2023-02-12T18:34:30;94556.06;;;0.39;72.34
64402;BME280;50724;42.376;23.768;2023-02-12T18:37:30;94564.97;;;0.32;72.79
64402;BME280;50724;42.376;23.768;2023-02-12T18:40:31;94559.38;;;0.41;72.73
64402;BME280;50724;42.376;23.768;2023-02-12T18:43:31;94569.25;;;0.32;73.37
64402;BME280;50724;42.376;23.768;2023-02-12T18:46:35;94563.78;;;0.21;74.48
64402;BME280;50724;42.376;23.768;2023-02-12T18:49:35;94577.94;;;0.29;74.13